sensor_id;sensor_type;location;lat;lon;timestamp;P1;durP1;ratioP1;P2;durP2;ratioP2
37019;SDS011;22932;52.442;16.896;2022-11-15T00:05:38;110.00;;;58.40;;
37019;SDS011;22932;52.442;16.896;2022-11-15T00:08:07;113.90;;;57.00;;
37019;SDS011;22932;52.442;16.896;2022-11-15T00:10:37;114.70;;;58.80;;
37019;SDS011;22932;52.442;16.896;2022-11-15T00:13:07;151.00;;;61.20;;
37019;SDS011;22932;52.442;16.896;2022-11-15T00:15:37;115.20;;;59.40;;
37019;SDS011;22932;52.442;16.896;2022-11-15T00:18:11;137.00;;;63.30;;
37019;SDS011;22932;52.442;16.896;2022-11-15T00:20:42;126.50;;;59.50;;
37019;SDS011;22932;52.442;16.896;2022-11-15T00:23:11;136.90;;;61.50;;
37019;SDS011;22932;52.442;16.896;2022-11-15T00:25:42;133.30;;;63.00;;
37019;SDS011;22932;52.442;16.896;2022-11-15T00:28:12;149.20;;;64.80;;
37019;SDS011;22932;52.442;16.896;2022-11-15T00:30:41;145.00;;;63.70;;
37019;SDS011;22932;52.442;16.896;2022-11-15T00:33:11;132.10;;;62.10;;
37019;SDS011;22932;52.442;16.896;2022-11-15T00:35:40;144.40;;;63.80;;
37019;SDS011;22932;52.442;16.896;2022-11-15T00:38:10;140.90;;;63.10;;
37019;SDS011;22932;52.442;16.896;2022-11-15T00:40:39;130.10;;;65.30;;
37019;SDS011;22932;52.442;16.896;2022-11-15T00:43:09;118.80;;;62.20;;
37019;SDS011;22932;52.442;16.896;2022-11-15T00:45:38;136.60;;;64.40;;
37019;SDS011;22932;52.442;16.896;2022-11-15T00:48:08;112.20;;;59.30;;
37019;SDS011;22932;52.442;16.896;2022-11-15T00:50:37;133.50;;;65.30;;
37019;SDS011;22932;52.442;16.896;2022-11-15T00:53:07;143.20;;;63.20;;
37019;SDS011;22932;52.442;16.896;2022-11-15T00:55:36;140.00;;;64.70;;
37019;SDS011;22932;52.442;16.896;2022-11-15T00:58:06;133.30;;;63.30;;
37019;SDS011;22932;52.442;16.896;2022-11-15T01:00:36;151.80;;;63.40;;
37019;SDS011;22932;52.442;16.896;2022-11-15T01:03:05;145.50;;;63.30;;
37019;SDS011;22932;52.442;16.896;2022-11-15T01:05:36;162.90;;;69.60;;
37019;SDS011;22932;52.442;16.896;2022-11-15T01:08:05;118.50;;;59.30;;
37019;SDS011;22932;52.442;16.896;2022-11-15T01:10:39;124.70;;;62.40;;
37019;SDS011;22932;52.442;16.896;2022-11-15T01:13:09;137.70;;;64.20;;
37019;SDS011;22932;52.442;16.896;2022-11-15T01:15:40;144.80;;;66.70;;
37019;SDS011;22932;52.442;16.896;2022-11-15T01:18:10;165.90;;;66.30;;
37019;SDS011;22932;52.442;16.896;2022-11-15T01:20:40;159.20;;;64.50;;
37019;SDS011;22932;52.442;16.896;2022-11-15T01:23:10;139.80;;;65.40;;
37019;SDS011;22932;52.442;16.896;2022-11-15T01:25:39;143.40;;;65.10;;
37019;SDS011;22932;52.442;16.896;2022-11-15T01:28:09;141.30;;;65.70;;
37019;SDS011;22932;52.442;16.896;2022-11-15T01:30:38;150.80;;;66.70;;
37019;SDS011;22932;52.442;16.896;2022-11-15T01:33:08;162.80;;;68.40;;
37019;SDS011;22932;52.442;16.896;2022-11-15T01:35:39;126.20;;;64.30;;
37019;SDS011;22932;52.442;16.896;2022-11-15T01:38:09;151.60;;;67.00;;
37019;SDS011;22932;52.442;16.896;2022-11-15T01:40:38;120.00;;;62.00;;
37019;SDS011;22932;52.442;16.896;2022-11-15T01:43:20;135.20;;;64.80;;
37019;SDS011;22932;52.442;16.896;2022-11-15T01:45:52;156.80;;;64.50;;
37019;SDS011;22932;52.442;16.896;2022-11-15T01:48:28;151.30;;;62.00;;
37019;SDS011;22932;52.442;16.896;2022-11-15T01:51:01;124.80;;;63.70;;
37019;SDS011;22932;52.442;16.896;2022-11-15T01:53:34;114.90;;;60.30;;
37019;SDS011;22932;52.442;16.896;2022-11-15T01:56:06;129.00;;;63.10;;
37019;SDS011;22932;52.442;16.896;2022-11-15T01:58:39;153.80;;;65.40;;
37019;SDS011;22932;52.442;16.896;2022-11-15T02:01:10;133.40;;;62.00;;
37019;SDS011;22932;52.442;16.896;2022-11-15T02:03:42;126.00;;;61.60;;
37019;SDS011;22932;52.442;16.896;2022-11-15T02:06:18;125.60;;;60.20;;
37019;SDS011;22932;52.442;16.896;2022-11-15T02:11:17;144.70;;;62.80;;
37019;SDS011;22932;52.442;16.896;2022-11-15T02:13:46;142.90;;;61.10;;
37019;SDS011;22932;52.442;16.896;2022-11-15T02:16:18;117.10;;;60.30;;
37019;SDS011;22932;52.442;16.896;2022-11-15T02:18:57;134.50;;;60.00;;
37019;SDS011;22932;52.442;16.896;2022-11-15T02:21:36;120.50;;;58.50;;
37019;SDS011;22932;52.442;16.896;2022-11-15T02:27:41;124.00;;;58.00;;
37019;SDS011;22932;52.442;16.896;2022-11-15T02:30:25;164.00;;;60.50;;
37019;SDS011;22932;52.442;16.896;2022-11-15T02:33:00;117.80;;;56.20;;
37019;SDS011;22932;52.442;16.896;2022-11-15T02:35:37;157.50;;;60.70;;
37019;SDS011;22932;52.442;16.896;2022-11-15T02:38:15;122.60;;;60.40;;
37019;SDS011;22932;52.442;16.896;2022-11-15T02:40:51;144.00;;;60.20;;
37019;SDS011;22932;52.442;16.896;2022-11-15T02:43:38;168.80;;;63.20;;
37019;SDS011;22932;52.442;16.896;2022-11-15T02:46:27;132.20;;;60.70;;
37019;SDS011;22932;52.442;16.896;2022-11-15T02:49:22;113.20;;;58.90;;
37019;SDS011;22932;52.442;16.896;2022-11-15T02:51:55;143.80;;;59.30;;
37019;SDS011;22932;52.442;16.896;2022-11-15T02:54:25;139.30;;;61.70;;
37019;SDS011;22932;52.442;16.896;2022-11-15T02:56:58;108.00;;;57.50;;
37019;SDS011;22932;52.442;16.896;2022-11-15T03:02:48;107.60;;;56.50;;
37019;SDS011;22932;52.442;16.896;2022-11-15T03:05:33;119.20;;;54.80;;
37019;SDS011;22932;52.442;16.896;2022-11-15T03:08:10;146.00;;;57.40;;
37019;SDS011;22932;52.442;16.896;2022-11-15T03:10:49;119.30;;;57.50;;
37019;SDS011;22932;52.442;16.896;2022-11-15T03:13:27;119.00;;;59.70;;
37019;SDS011;22932;52.442;16.896;2022-11-15T03:16:02;123.50;;;58.40;;
37019;SDS011;22932;52.442;16.896;2022-11-15T03:18:37;157.90;;;59.80;;
37019;SDS011;22932;52.442;16.896;2022-11-15T03:21:09;118.50;;;56.70;;
37019;SDS011;22932;52.442;16.896;2022-11-15T03:23:42;100.90;;;52.50;;
37019;SDS011;22932;52.442;16.896;2022-11-15T03:26:15;84.40;;;50.50;;
37019;SDS011;22932;52.442;16.896;2022-11-15T03:28:49;101.80;;;48.40;;
37019;SDS011;22932;52.442;16.896;2022-11-15T03:31:22;101.90;;;54.20;;
37019;SDS011;22932;52.442;16.896;2022-11-15T03:34:13;108.90;;;52.00;;
37019;SDS011;22932;52.442;16.896;2022-11-15T03:36:51;163.80;;;58.10;;
37019;SDS011;22932;52.442;16.896;2022-11-15T03:39:21;112.10;;;53.30;;
37019;SDS011;22932;52.442;16.896;2022-11-15T03:41:52;124.90;;;56.00;;
37019;SDS011;22932;52.442;16.896;2022-11-15T03:44:34;127.70;;;49.90;;
37019;SDS011;22932;52.442;16.896;2022-11-15T03:47:09;89.30;;;50.70;;
37019;SDS011;22932;52.442;16.896;2022-11-15T03:49:44;115.60;;;54.10;;
37019;SDS011;22932;52.442;16.896;2022-11-15T03:52:19;131.70;;;52.60;;
37019;SDS011;22932;52.442;16.896;2022-11-15T03:57:21;94.60;;;50.80;;
37019;SDS011;22932;52.442;16.896;2022-11-15T03:59:51;89.00;;;52.10;;
37019;SDS011;22932;52.442;16.896;2022-11-15T04:02:20;99.30;;;53.60;;
37019;SDS011;22932;52.442;16.896;2022-11-15T04:04:50;91.60;;;51.10;;
37019;SDS011;22932;52.442;16.896;2022-11-15T04:07:19;91.30;;;49.30;;
37019;SDS011;22932;52.442;16.896;2022-11-15T04:09:49;103.20;;;55.90;;
37019;SDS011;22932;52.442;16.896;2022-11-15T04:12:32;115.90;;;54.50;;
37019;SDS011;22932;52.442;16.896;2022-11-15T04:15:03;103.80;;;54.00;;
37019;SDS011;22932;52.442;16.896;2022-11-15T04:17:36;108.60;;;56.20;;
37019;SDS011;22932;52.442;16.896;2022-11-15T04:20:09;109.90;;;56.00;;
37019;SDS011;22932;52.442;16.896;2022-11-15T04:22:58;81.00;;;50.40;;
37019;SDS011;22932;52.442;16.896;2022-11-15T04:25:47;137.50;;;57.00;;
37019;SDS011;22932;52.442;16.896;2022-11-15T04:28:19;137.80;;;56.10;;
37019;SDS011;22932;52.442;16.896;2022-11-15T04:30:49;107.60;;;52.60;;
37019;SDS011;22932;52.442;16.896;2022-11-15T04:33:19;131.90;;;54.50;;
37019;SDS011;22932;52.442;16.896;2022-11-15T04:35:49;103.50;;;51.80;;
37019;SDS011;22932;52.442;16.896;2022-11-15T04:38:32;100.20;;;51.60;;
37019;SDS011;22932;52.442;16.896;2022-11-15T04:41:02;82.90;;;50.10;;
37019;SDS011;22932;52.442;16.896;2022-11-15T04:43:32;99.10;;;53.70;;
37019;SDS011;22932;52.442;16.896;2022-11-15T04:46:01;87.50;;;52.70;;
37019;SDS011;22932;52.442;16.896;2022-11-15T04:48:30;86.50;;;51.20;;
37019;SDS011;22932;52.442;16.896;2022-11-15T04:51:00;92.30;;;50.40;;
37019;SDS011;22932;52.442;16.896;2022-11-15T04:53:29;107.90;;;53.60;;
37019;SDS011;22932;52.442;16.896;2022-11-15T04:55:59;97.40;;;51.70;;
37019;SDS011;22932;52.442;16.896;2022-11-15T04:58:28;128.10;;;54.30;;
37019;SDS011;22932;52.442;16.896;2022-11-15T05:00:58;102.00;;;53.20;;
37019;SDS011;22932;52.442;16.896;2022-11-15T05:03:33;121.50;;;55.70;;
37019;SDS011;22932;52.442;16.896;2022-11-15T05:06:20;97.70;;;50.80;;
37019;SDS011;22932;52.442;16.896;2022-11-15T05:08:50;102.40;;;53.40;;
37019;SDS011;22932;52.442;16.896;2022-11-15T05:11:19;119.30;;;54.70;;
37019;SDS011;22932;52.442;16.896;2022-11-15T05:13:49;109.50;;;52.20;;
37019;SDS011;22932;52.442;16.896;2022-11-15T05:16:19;144.70;;;54.70;;
37019;SDS011;22932;52.442;16.896;2022-11-15T05:18:51;105.90;;;52.80;;
37019;SDS011;22932;52.442;16.896;2022-11-15T05:21:21;164.40;;;59.80;;
37019;SDS011;22932;52.442;16.896;2022-11-15T05:23:50;113.40;;;53.10;;
37019;SDS011;22932;52.442;16.896;2022-11-15T05:26:20;109.40;;;54.10;;
37019;SDS011;22932;52.442;16.896;2022-11-15T05:28:53;108.70;;;53.30;;
37019;SDS011;22932;52.442;16.896;2022-11-15T05:31:23;134.00;;;54.70;;
37019;SDS011;22932;52.442;16.896;2022-11-15T05:33:54;134.20;;;55.10;;
37019;SDS011;22932;52.442;16.896;2022-11-15T05:36:27;139.60;;;60.00;;
37019;SDS011;22932;52.442;16.896;2022-11-15T05:39:00;132.80;;;55.40;;
37019;SDS011;22932;52.442;16.896;2022-11-15T05:41:32;121.30;;;55.90;;
37019;SDS011;22932;52.442;16.896;2022-11-15T05:44:05;101.40;;;52.00;;
37019;SDS011;22932;52.442;16.896;2022-11-15T05:46:36;138.40;;;57.60;;
37019;SDS011;22932;52.442;16.896;2022-11-15T05:49:09;84.20;;;54.30;;
37019;SDS011;22932;52.442;16.896;2022-11-15T05:51:42;120.00;;;55.30;;
37019;SDS011;22932;52.442;16.896;2022-11-15T05:54:14;142.50;;;59.70;;
37019;SDS011;22932;52.442;16.896;2022-11-15T05:56:45;128.00;;;58.80;;
37019;SDS011;22932;52.442;16.896;2022-11-15T05:59:15;122.30;;;56.10;;
37019;SDS011;22932;52.442;16.896;2022-11-15T06:01:45;153.40;;;61.40;;
37019;SDS011;22932;52.442;16.896;2022-11-15T06:04:14;134.40;;;60.50;;
37019;SDS011;22932;52.442;16.896;2022-11-15T06:06:44;138.80;;;58.40;;
37019;SDS011;22932;52.442;16.896;2022-11-15T06:09:13;110.70;;;55.50;;
37019;SDS011;22932;52.442;16.896;2022-11-15T06:11:43;98.70;;;54.70;;
37019;SDS011;22932;52.442;16.896;2022-11-15T06:14:12;92.30;;;54.50;;
37019;SDS011;22932;52.442;16.896;2022-11-15T06:16:43;98.40;;;54.10;;
37019;SDS011;22932;52.442;16.896;2022-11-15T06:19:12;87.90;;;53.60;;
37019;SDS011;22932;52.442;16.896;2022-11-15T06:21:42;92.10;;;56.40;;
37019;SDS011;22932;52.442;16.896;2022-11-15T06:24:11;94.40;;;55.00;;
37019;SDS011;22932;52.442;16.896;2022-11-15T06:26:41;103.30;;;60.50;;
37019;SDS011;22932;52.442;16.896;2022-11-15T06:29:10;106.40;;;57.90;;
37019;SDS011;22932;52.442;16.896;2022-11-15T06:31:39;99.20;;;56.60;;
37019;SDS011;22932;52.442;16.896;2022-11-15T06:34:09;136.20;;;57.30;;
37019;SDS011;22932;52.442;16.896;2022-11-15T06:36:38;101.70;;;57.00;;
37019;SDS011;22932;52.442;16.896;2022-11-15T06:39:08;97.90;;;54.10;;
37019;SDS011;22932;52.442;16.896;2022-11-15T06:41:37;79.40;;;53.00;;
37019;SDS011;22932;52.442;16.896;2022-11-15T06:44:07;174.00;;;56.70;;
37019;SDS011;22932;52.442;16.896;2022-11-15T06:46:36;148.30;;;56.00;;
37019;SDS011;22932;52.442;16.896;2022-11-15T06:49:06;100.80;;;54.30;;
37019;SDS011;22932;52.442;16.896;2022-11-15T06:51:35;165.60;;;59.30;;
37019;SDS011;22932;52.442;16.896;2022-11-15T06:54:05;93.20;;;51.10;;
37019;SDS011;22932;52.442;16.896;2022-11-15T06:56:34;132.20;;;58.70;;
37019;SDS011;22932;52.442;16.896;2022-11-15T06:59:04;149.40;;;59.30;;
37019;SDS011;22932;52.442;16.896;2022-11-15T07:01:33;121.60;;;53.40;;
37019;SDS011;22932;52.442;16.896;2022-11-15T07:04:03;113.00;;;54.60;;
37019;SDS011;22932;52.442;16.896;2022-11-15T07:06:32;150.60;;;56.90;;
37019;SDS011;22932;52.442;16.896;2022-11-15T07:09:03;96.20;;;52.80;;
37019;SDS011;22932;52.442;16.896;2022-11-15T07:11:33;91.50;;;52.20;;
37019;SDS011;22932;52.442;16.896;2022-11-15T07:14:03;69.50;;;49.30;;
37019;SDS011;22932;52.442;16.896;2022-11-15T07:16:32;85.30;;;52.20;;
37019;SDS011;22932;52.442;16.896;2022-11-15T07:21:32;137.10;;;56.30;;
37019;SDS011;22932;52.442;16.896;2022-11-15T07:24:01;115.40;;;53.60;;
37019;SDS011;22932;52.442;16.896;2022-11-15T07:26:31;132.60;;;53.50;;
37019;SDS011;22932;52.442;16.896;2022-11-15T07:29:01;130.10;;;52.40;;
37019;SDS011;22932;52.442;16.896;2022-11-15T07:31:31;135.20;;;52.70;;
37019;SDS011;22932;52.442;16.896;2022-11-15T07:34:00;98.40;;;49.50;;
37019;SDS011;22932;52.442;16.896;2022-11-15T07:36:30;109.20;;;51.40;;
37019;SDS011;22932;52.442;16.896;2022-11-15T07:38:59;111.20;;;50.10;;
37019;SDS011;22932;52.442;16.896;2022-11-15T07:41:29;113.30;;;51.80;;
37019;SDS011;22932;52.442;16.896;2022-11-15T07:43:59;97.80;;;50.00;;
37019;SDS011;22932;52.442;16.896;2022-11-15T07:46:29;126.60;;;52.50;;
37019;SDS011;22932;52.442;16.896;2022-11-15T07:48:58;92.50;;;48.60;;
37019;SDS011;22932;52.442;16.896;2022-11-15T07:51:28;135.90;;;50.60;;
37019;SDS011;22932;52.442;16.896;2022-11-15T07:53:57;67.20;;;45.70;;
37019;SDS011;22932;52.442;16.896;2022-11-15T07:56:26;100.90;;;51.80;;
37019;SDS011;22932;52.442;16.896;2022-11-15T07:58:56;110.60;;;52.20;;
37019;SDS011;22932;52.442;16.896;2022-11-15T08:01:27;107.80;;;49.20;;
37019;SDS011;22932;52.442;16.896;2022-11-15T08:03:56;82.80;;;47.70;;
37019;SDS011;22932;52.442;16.896;2022-11-15T08:06:26;100.20;;;51.20;;
37019;SDS011;22932;52.442;16.896;2022-11-15T08:08:55;99.60;;;52.20;;
37019;SDS011;22932;52.442;16.896;2022-11-15T08:11:24;91.00;;;52.80;;
37019;SDS011;22932;52.442;16.896;2022-11-15T08:13:54;126.80;;;52.40;;
37019;SDS011;22932;52.442;16.896;2022-11-15T08:16:24;144.60;;;59.00;;
37019;SDS011;22932;52.442;16.896;2022-11-15T08:18:53;107.60;;;53.60;;
37019;SDS011;22932;52.442;16.896;2022-11-15T08:21:22;161.30;;;56.00;;
37019;SDS011;22932;52.442;16.896;2022-11-15T08:23:52;148.90;;;53.90;;
37019;SDS011;22932;52.442;16.896;2022-11-15T08:26:21;107.30;;;54.20;;
37019;SDS011;22932;52.442;16.896;2022-11-15T08:28:54;124.80;;;51.60;;
37019;SDS011;22932;52.442;16.896;2022-11-15T08:31:23;114.60;;;54.70;;
37019;SDS011;22932;52.442;16.896;2022-11-15T08:33:53;103.50;;;53.10;;
37019;SDS011;22932;52.442;16.896;2022-11-15T08:36:22;113.80;;;52.00;;
37019;SDS011;22932;52.442;16.896;2022-11-15T08:38:51;115.30;;;52.40;;
37019;SDS011;22932;52.442;16.896;2022-11-15T08:41:23;109.60;;;52.50;;
37019;SDS011;22932;52.442;16.896;2022-11-15T08:43:55;93.20;;;52.20;;
37019;SDS011;22932;52.442;16.896;2022-11-15T08:46:25;82.60;;;51.70;;
37019;SDS011;22932;52.442;16.896;2022-11-15T08:48:54;97.50;;;53.80;;
37019;SDS011;22932;52.442;16.896;2022-11-15T08:51:24;94.30;;;53.90;;
37019;SDS011;22932;52.442;16.896;2022-11-15T08:53:53;65.70;;;41.70;;
37019;SDS011;22932;52.442;16.896;2022-11-15T08:56:23;88.90;;;52.60;;
37019;SDS011;22932;52.442;16.896;2022-11-15T08:58:52;85.10;;;53.80;;
37019;SDS011;22932;52.442;16.896;2022-11-15T09:01:21;97.60;;;53.30;;
37019;SDS011;22932;52.442;16.896;2022-11-15T09:03:51;127.70;;;58.20;;
37019;SDS011;22932;52.442;16.896;2022-11-15T09:06:21;122.20;;;55.40;;
37019;SDS011;22932;52.442;16.896;2022-11-15T09:08:50;138.50;;;56.20;;
37019;SDS011;22932;52.442;16.896;2022-11-15T09:11:20;104.70;;;54.40;;
37019;SDS011;22932;52.442;16.896;2022-11-15T09:13:50;115.90;;;54.50;;
37019;SDS011;22932;52.442;16.896;2022-11-15T09:16:19;115.40;;;56.80;;
37019;SDS011;22932;52.442;16.896;2022-11-15T09:18:49;148.60;;;59.60;;
37019;SDS011;22932;52.442;16.896;2022-11-15T09:21:18;98.40;;;57.10;;
37019;SDS011;22932;52.442;16.896;2022-11-15T09:23:49;85.00;;;54.90;;
37019;SDS011;22932;52.442;16.896;2022-11-15T09:26:19;122.70;;;57.60;;
37019;SDS011;22932;52.442;16.896;2022-11-15T09:28:48;103.30;;;57.50;;
37019;SDS011;22932;52.442;16.896;2022-11-15T09:31:18;104.20;;;57.10;;
37019;SDS011;22932;52.442;16.896;2022-11-15T09:33:48;117.00;;;59.30;;
37019;SDS011;22932;52.442;16.896;2022-11-15T09:36:17;93.70;;;57.70;;
37019;SDS011;22932;52.442;16.896;2022-11-15T09:38:47;137.30;;;59.60;;
37019;SDS011;22932;52.442;16.896;2022-11-15T09:41:29;129.60;;;58.30;;
37019;SDS011;22932;52.442;16.896;2022-11-15T09:44:26;92.90;;;58.30;;
37019;SDS011;22932;52.442;16.896;2022-11-15T09:47:16;80.10;;;52.50;;
37019;SDS011;22932;52.442;16.896;2022-11-15T09:50:00;90.40;;;58.00;;
37019;SDS011;22932;52.442;16.896;2022-11-15T09:52:36;93.10;;;57.40;;
37019;SDS011;22932;52.442;16.896;2022-11-15T09:55:10;113.10;;;59.20;;
37019;SDS011;22932;52.442;16.896;2022-11-15T09:57:49;90.00;;;57.70;;
37019;SDS011;22932;52.442;16.896;2022-11-15T10:00:25;103.30;;;59.80;;
37019;SDS011;22932;52.442;16.896;2022-11-15T10:03:12;92.10;;;56.90;;
37019;SDS011;22932;52.442;16.896;2022-11-15T10:05:44;93.40;;;55.40;;
37019;SDS011;22932;52.442;16.896;2022-11-15T10:08:25;94.40;;;58.60;;
37019;SDS011;22932;52.442;16.896;2022-11-15T10:11:19;118.70;;;65.40;;
37019;SDS011;22932;52.442;16.896;2022-11-15T10:13:52;103.30;;;63.60;;
37019;SDS011;22932;52.442;16.896;2022-11-15T10:19:31;120.10;;;60.80;;
37019;SDS011;22932;52.442;16.896;2022-11-15T10:22:11;92.80;;;58.50;;
37019;SDS011;22932;52.442;16.896;2022-11-15T10:27:42;95.60;;;58.70;;
37019;SDS011;22932;52.442;16.896;2022-11-15T10:30:15;98.20;;;60.60;;
37019;SDS011;22932;52.442;16.896;2022-11-15T10:32:47;104.20;;;62.70;;
37019;SDS011;22932;52.442;16.896;2022-11-15T10:35:21;94.50;;;59.30;;
37019;SDS011;22932;52.442;16.896;2022-11-15T10:37:53;99.70;;;63.50;;
37019;SDS011;22932;52.442;16.896;2022-11-15T10:40:34;101.80;;;65.50;;
37019;SDS011;22932;52.442;16.896;2022-11-15T10:43:06;103.90;;;64.10;;
37019;SDS011;22932;52.442;16.896;2022-11-15T10:45:43;98.00;;;60.50;;
37019;SDS011;22932;52.442;16.896;2022-11-15T10:50:50;97.50;;;61.10;;
37019;SDS011;22932;52.442;16.896;2022-11-15T10:53:26;103.60;;;61.70;;
37019;SDS011;22932;52.442;16.896;2022-11-15T10:56:00;90.10;;;56.60;;
37019;SDS011;22932;52.442;16.896;2022-11-15T10:58:34;84.40;;;58.20;;
37019;SDS011;22932;52.442;16.896;2022-11-15T11:01:16;101.90;;;63.70;;
37019;SDS011;22932;52.442;16.896;2022-11-15T11:03:57;99.00;;;63.20;;
37019;SDS011;22932;52.442;16.896;2022-11-15T11:08:57;98.20;;;62.20;;
37019;SDS011;22932;52.442;16.896;2022-11-15T11:11:44;94.80;;;61.60;;
37019;SDS011;22932;52.442;16.896;2022-11-15T11:14:17;104.90;;;63.50;;
37019;SDS011;22932;52.442;16.896;2022-11-15T11:16:51;98.40;;;61.80;;
37019;SDS011;22932;52.442;16.896;2022-11-15T11:22:25;96.80;;;59.10;;
37019;SDS011;22932;52.442;16.896;2022-11-15T11:27:55;90.50;;;58.30;;
37019;SDS011;22932;52.442;16.896;2022-11-15T11:30:34;91.10;;;56.10;;
37019;SDS011;22932;52.442;16.896;2022-11-15T11:33:13;94.50;;;58.70;;
37019;SDS011;22932;52.442;16.896;2022-11-15T11:35:51;83.30;;;52.60;;
37019;SDS011;22932;52.442;16.896;2022-11-15T11:38:41;86.70;;;57.30;;
37019;SDS011;22932;52.442;16.896;2022-11-15T11:41:20;96.40;;;60.10;;
37019;SDS011;22932;52.442;16.896;2022-11-15T11:44:06;88.40;;;57.20;;
37019;SDS011;22932;52.442;16.896;2022-11-15T11:46:51;99.90;;;61.20;;
37019;SDS011;22932;52.442;16.896;2022-11-15T11:49:29;95.30;;;60.90;;
37019;SDS011;22932;52.442;16.896;2022-11-15T11:52:08;98.00;;;60.90;;
37019;SDS011;22932;52.442;16.896;2022-11-15T11:54:44;91.10;;;59.50;;
37019;SDS011;22932;52.442;16.896;2022-11-15T11:57:23;94.30;;;60.40;;
37019;SDS011;22932;52.442;16.896;2022-11-15T12:00:03;97.00;;;61.30;;
37019;SDS011;22932;52.442;16.896;2022-11-15T12:02:43;96.00;;;59.90;;
37019;SDS011;22932;52.442;16.896;2022-11-15T12:05:18;95.60;;;61.60;;
37019;SDS011;22932;52.442;16.896;2022-11-15T12:07:56;98.60;;;62.80;;
37019;SDS011;22932;52.442;16.896;2022-11-15T12:10:32;99.40;;;61.50;;
37019;SDS011;22932;52.442;16.896;2022-11-15T12:13:04;101.60;;;64.20;;
37019;SDS011;22932;52.442;16.896;2022-11-15T12:15:39;97.50;;;61.20;;
37019;SDS011;22932;52.442;16.896;2022-11-15T12:18:13;85.10;;;57.50;;
37019;SDS011;22932;52.442;16.896;2022-11-15T12:20:49;94.10;;;58.50;;
37019;SDS011;22932;52.442;16.896;2022-11-15T12:23:24;99.00;;;63.20;;
37019;SDS011;22932;52.442;16.896;2022-11-15T12:25:58;97.30;;;60.60;;
37019;SDS011;22932;52.442;16.896;2022-11-15T12:28:34;96.40;;;62.30;;
37019;SDS011;22932;52.442;16.896;2022-11-15T12:31:11;97.60;;;61.60;;
37019;SDS011;22932;52.442;16.896;2022-11-15T12:33:45;106.40;;;63.40;;
37019;SDS011;22932;52.442;16.896;2022-11-15T12:38:57;93.50;;;58.70;;
37019;SDS011;22932;52.442;16.896;2022-11-15T12:41:29;81.60;;;51.60;;
37019;SDS011;22932;52.442;16.896;2022-11-15T12:44:00;96.10;;;60.70;;
37019;SDS011;22932;52.442;16.896;2022-11-15T12:49:44;94.00;;;57.20;;
37019;SDS011;22932;52.442;16.896;2022-11-15T12:52:14;94.70;;;60.00;;
37019;SDS011;22932;52.442;16.896;2022-11-15T12:54:52;103.50;;;62.90;;
37019;SDS011;22932;52.442;16.896;2022-11-15T12:57:26;108.70;;;64.70;;
37019;SDS011;22932;52.442;16.896;2022-11-15T13:06:06;106.60;;;65.40;;
37019;SDS011;22932;52.442;16.896;2022-11-15T13:08:48;111.90;;;65.50;;
37019;SDS011;22932;52.442;16.896;2022-11-15T13:14:03;95.50;;;56.40;;
37019;SDS011;22932;52.442;16.896;2022-11-15T13:17:24;105.00;;;61.60;;
37019;SDS011;22932;52.442;16.896;2022-11-15T13:20:07;89.00;;;53.60;;
37019;SDS011;22932;52.442;16.896;2022-11-15T13:22:46;106.50;;;61.20;;
37019;SDS011;22932;52.442;16.896;2022-11-15T13:28:23;101.50;;;59.60;;
37019;SDS011;22932;52.442;16.896;2022-11-15T13:30:59;97.70;;;58.00;;
37019;SDS011;22932;52.442;16.896;2022-11-15T13:33:31;109.30;;;61.90;;
37019;SDS011;22932;52.442;16.896;2022-11-15T13:36:03;96.30;;;57.30;;
37019;SDS011;22932;52.442;16.896;2022-11-15T13:38:37;96.80;;;58.60;;
37019;SDS011;22932;52.442;16.896;2022-11-15T13:41:17;98.70;;;58.50;;
37019;SDS011;22932;52.442;16.896;2022-11-15T13:43:48;110.90;;;65.90;;
37019;SDS011;22932;52.442;16.896;2022-11-15T13:48:51;101.20;;;59.50;;
37019;SDS011;22932;52.442;16.896;2022-11-15T13:51:23;105.30;;;63.90;;
37019;SDS011;22932;52.442;16.896;2022-11-15T13:53:58;99.10;;;60.20;;
37019;SDS011;22932;52.442;16.896;2022-11-15T13:56:31;82.80;;;51.50;;
37019;SDS011;22932;52.442;16.896;2022-11-15T13:59:07;108.30;;;65.60;;
37019;SDS011;22932;52.442;16.896;2022-11-15T14:01:39;125.50;;;64.50;;
37019;SDS011;22932;52.442;16.896;2022-11-15T14:04:12;108.40;;;64.50;;
37019;SDS011;22932;52.442;16.896;2022-11-15T14:06:46;109.00;;;64.90;;
37019;SDS011;22932;52.442;16.896;2022-11-15T14:09:28;110.90;;;64.30;;
37019;SDS011;22932;52.442;16.896;2022-11-15T14:12:01;104.30;;;61.10;;
37019;SDS011;22932;52.442;16.896;2022-11-15T14:14:45;101.60;;;59.90;;
37019;SDS011;22932;52.442;16.896;2022-11-15T14:19:50;113.60;;;60.10;;
37019;SDS011;22932;52.442;16.896;2022-11-15T14:22:21;104.50;;;55.60;;
37019;SDS011;22932;52.442;16.896;2022-11-15T14:25:13;117.70;;;59.70;;
37019;SDS011;22932;52.442;16.896;2022-11-15T14:28:07;72.40;;;43.50;;
37019;SDS011;22932;52.442;16.896;2022-11-15T14:30:40;96.70;;;56.90;;
37019;SDS011;22932;52.442;16.896;2022-11-15T14:33:19;93.10;;;54.30;;
37019;SDS011;22932;52.442;16.896;2022-11-15T14:35:51;97.30;;;54.00;;
37019;SDS011;22932;52.442;16.896;2022-11-15T14:40:50;90.90;;;53.40;;
37019;SDS011;22932;52.442;16.896;2022-11-15T14:43:22;96.30;;;53.30;;
37019;SDS011;22932;52.442;16.896;2022-11-15T14:45:52;128.40;;;61.70;;
37019;SDS011;22932;52.442;16.896;2022-11-15T14:48:21;87.60;;;54.00;;
37019;SDS011;22932;52.442;16.896;2022-11-15T14:50:51;106.40;;;55.60;;
37019;SDS011;22932;52.442;16.896;2022-11-15T14:53:20;98.00;;;55.50;;
37019;SDS011;22932;52.442;16.896;2022-11-15T14:55:50;98.40;;;56.00;;
